createdAt,value
2019-05-13T00:01:23.763Z,1.32
2019-05-13T00:04:19.430Z,1.35
2019-05-13T00:07:13.431Z,1.70
2019-05-13T00:10:05.801Z,1.42
2019-05-13T00:13:03.673Z,2.00
2019-05-13T00:16:03.783Z,1.47
2019-05-13T00:18:53.450Z,1.50
2019-05-13T00:21:44.700Z,1.45
2019-05-13T00:24:39.926Z,1.52
2019-05-13T00:27:30.537Z,1.42
2019-05-13T00:30:23.562Z,1.50
2019-05-13T00:36:24.317Z,1.77
2019-05-13T00:39:26.056Z,1.60
2019-05-13T00:42:30.631Z,1.62
2019-05-13T00:45:19.592Z,1.20
2019-05-13T00:48:20.075Z,1.62
2019-05-13T00:51:14.164Z,1.20
2019-05-13T00:54:05.672Z,1.07
2019-05-13T00:56:58.985Z,1.15
2019-05-13T00:59:54.059Z,1.37
2019-05-13T01:02:46.638Z,2.20
2019-05-13T01:05:44.245Z,1.37
2019-05-13T01:08:33.876Z,1.47
2019-05-13T01:11:25.032Z,2.52
2019-05-13T01:14:17.833Z,1.70
2019-05-13T01:17:18.311Z,2.20
2019-05-13T01:20:11.368Z,1.40
2019-05-13T01:23:04.243Z,1.25
2019-05-13T01:25:56.974Z,1.37
2019-05-13T01:28:50.024Z,1.07
2019-05-13T01:31:50.762Z,1.12
2019-05-13T01:34:53.638Z,1.57
2019-05-13T01:37:46.174Z,1.42
2019-05-13T01:40:34.774Z,1.50
2019-05-13T01:43:36.298Z,1.32
2019-05-13T01:46:29.608Z,1.50
2019-05-13T01:49:25.999Z,1.80
2019-05-13T01:52:15.393Z,2.05
2019-05-13T01:55:06.672Z,1.72
2019-05-13T01:57:53.735Z,1.60
2019-05-13T02:00:46.704Z,1.90
2019-05-13T02:03:39.752Z,2.47
2019-05-13T02:06:40.745Z,1.70
2019-05-13T02:09:33.984Z,2.75
2019-05-13T02:12:27.371Z,1.27
2019-05-13T02:15:35.274Z,2.55
2019-05-13T02:18:28.070Z,2.67
2019-05-13T02:21:24.261Z,1.87
2019-05-13T02:24:26.476Z,2.27
2019-05-13T02:27:19.272Z,1.65
2019-05-13T02:30:06.575Z,1.82
2019-05-13T02:33:02.776Z,2.40
2019-05-13T02:35:52.721Z,1.80
2019-05-13T02:38:52.925Z,2.50
2019-05-13T02:41:43.313Z,1.72
2019-05-13T02:44:35.820Z,2.45
2019-05-13T02:47:38.861Z,1.52
2019-05-13T02:50:33.905Z,2.00
2019-05-13T02:53:24.812Z,2.00
2019-05-13T02:56:17.770Z,2.30
2019-05-13T02:59:18.249Z,1.90
2019-05-13T03:02:12.356Z,1.62
2019-05-13T03:05:07.050Z,2.22
2019-05-13T03:08:12.453Z,2.42
2019-05-13T03:11:03.141Z,1.95
2019-05-13T03:13:55.305Z,2.47
2019-05-13T03:17:05.512Z,2.33
2019-05-13T03:20:04.063Z,2.77
2019-05-13T03:22:55.463Z,1.50
2019-05-13T03:25:48.268Z,2.70
2019-05-13T03:28:37.497Z,2.25
2019-05-13T03:31:35.818Z,2.15
2019-05-13T03:34:36.124Z,2.15
2019-05-13T03:37:38.410Z,2.33
2019-05-13T03:40:32.913Z,1.82
2019-05-13T03:43:24.786Z,2.52
2019-05-13T03:46:14.035Z,1.67
2019-05-13T03:49:07.051Z,1.90
2019-05-13T03:52:03.102Z,1.72
2019-05-13T03:54:55.469Z,1.75
2019-05-13T03:57:58.093Z,1.95
2019-05-13T04:00:51.695Z,2.37
2019-05-13T04:03:52.534Z,1.90
2019-05-13T04:06:53.030Z,3.40
2019-05-13T04:09:37.642Z,1.90
2019-05-13T04:12:33.378Z,1.90
2019-05-13T04:15:26.055Z,3.02
2019-05-13T04:18:26.033Z,3.77
2019-05-13T04:21:27.529Z,1.60
2019-05-13T04:24:24.553Z,3.30
2019-05-13T04:27:13.896Z,1.82
2019-05-13T04:30:06.951Z,2.87
2019-05-13T04:33:02.436Z,2.00
2019-05-13T04:35:53.229Z,3.60
2019-05-13T04:38:48.937Z,1.65
2019-05-13T04:41:42.484Z,1.55
2019-05-13T04:44:43.183Z,3.45
2019-05-13T04:47:35.798Z,3.50
2019-05-13T04:50:32.701Z,1.72
2019-05-13T04:53:24.971Z,1.40
2019-05-13T04:56:23.419Z,1.85
2019-05-13T04:59:22.711Z,2.80
2019-05-13T05:02:36.601Z,2.25
2019-05-13T05:05:22.220Z,2.92
2019-05-13T05:08:32.970Z,1.98
2019-05-13T05:11:36.811Z,2.77
2019-05-13T05:14:46.767Z,2.00
2019-05-13T05:18:11.532Z,3.47
2019-05-13T05:21:04.104Z,2.10
2019-05-13T05:24:08.435Z,2.20
2019-05-13T05:27:15.563Z,3.42
2019-05-13T05:30:18.603Z,2.42
2019-05-13T05:33:25.744Z,2.47
2019-05-13T05:36:28.778Z,1.95
2019-05-13T05:39:24.647Z,1.90
2019-05-13T05:42:21.766Z,2.42
2019-05-13T05:45:22.092Z,2.00
2019-05-13T05:48:14.575Z,2.50
2019-05-13T05:51:09.423Z,2.98
2019-05-13T05:54:15.126Z,2.47
2019-05-13T05:57:13.451Z,4.05
2019-05-13T06:00:06.249Z,2.60
2019-05-13T06:03:02.320Z,2.80
2019-05-13T06:06:48.167Z,2.70
2019-05-13T06:09:44.046Z,2.65
2019-05-13T06:12:36.838Z,2.98
2019-05-13T06:15:42.051Z,2.98
2019-05-13T06:18:45.480Z,2.47
2019-05-13T06:21:38.314Z,3.62
2019-05-13T06:24:34.409Z,3.15
2019-05-13T06:27:27.471Z,2.45
2019-05-13T06:30:21.702Z,3.00
2019-05-13T06:33:21.767Z,2.70
2019-05-13T06:36:15.848Z,3.12
2019-05-13T06:39:12.342Z,2.92
2019-05-13T06:42:04.272Z,3.55
2019-05-13T06:45:12.313Z,3.00
2019-05-13T06:48:13.796Z,4.00
2019-05-13T06:51:03.916Z,3.65
2019-05-13T06:53:57.736Z,2.80
2019-05-13T06:57:05.063Z,2.55
2019-05-13T07:00:03.564Z,3.65
2019-05-13T07:02:56.615Z,3.15
2019-05-13T07:05:49.423Z,3.50
2019-05-13T07:08:52.151Z,4.58
2019-05-13T07:11:45.788Z,3.55
2019-05-13T07:14:41.155Z,3.25
2019-05-13T07:17:43.411Z,3.12
2019-05-13T07:20:36.454Z,2.70
2019-05-13T07:23:31.906Z,3.75
2019-05-13T07:26:25.899Z,3.17
2019-05-13T07:29:19.312Z,3.45
2019-05-13T07:32:22.248Z,4.40
2019-05-13T07:35:14.615Z,3.80
2019-05-13T07:38:03.500Z,3.55
2019-05-13T07:40:56.299Z,3.27
2019-05-13T07:44:02.735Z,3.12
2019-05-13T07:46:59.450Z,2.85
2019-05-13T07:49:43.659Z,2.67
2019-05-13T07:52:36.476Z,3.75
2019-05-13T07:55:32.327Z,3.92
2019-05-13T07:58:26.412Z,3.87
2019-05-13T08:01:33.549Z,2.95
2019-05-13T08:04:26.881Z,3.27
2019-05-13T08:07:15.828Z,2.00
2019-05-13T08:10:11.399Z,2.35
2019-05-13T08:16:12.196Z,3.75
2019-05-13T08:19:03.144Z,2.27
2019-05-13T08:22:09.003Z,2.83
2019-05-13T08:25:13.579Z,3.30
2019-05-13T08:28:06.648Z,2.42
2019-05-13T08:31:02.344Z,2.55
2019-05-13T08:33:55.058Z,2.80
2019-05-13T08:37:02.357Z,3.05
2019-05-13T08:40:01.584Z,2.60
2019-05-13T08:42:53.416Z,3.02
2019-05-13T08:45:57.995Z,2.83
2019-05-13T08:48:51.828Z,3.77
2019-05-13T08:51:54.089Z,3.47
2019-05-13T08:54:45.176Z,2.65
2019-05-13T08:57:36.104Z,1.77
2019-05-13T09:00:29.163Z,2.35
2019-05-13T09:03:21.976Z,2.52
2019-05-13T09:06:15.526Z,1.90
2019-05-13T09:09:13.707Z,2.70
2019-05-13T09:12:06.760Z,1.90
2019-05-13T09:15:12.111Z,2.00
2019-05-13T09:18:02.858Z,1.85
2019-05-13T09:20:58.730Z,1.67
2019-05-13T09:23:59.208Z,1.22
2019-05-13T09:26:52.730Z,2.20
2019-05-13T09:29:44.808Z,1.40
2019-05-13T09:32:47.123Z,1.47
2019-05-13T09:35:43.982Z,1.37
2019-05-13T09:38:37.291Z,1.60
2019-05-13T09:41:41.038Z,1.80
2019-05-13T09:44:37.743Z,1.40
2019-05-13T09:47:32.237Z,1.32
2019-05-13T09:50:31.697Z,1.47
2019-05-13T09:53:22.105Z,1.70
2019-05-13T09:56:22.308Z,1.27
2019-05-13T09:59:24.523Z,1.22
2019-05-13T10:08:28.007Z,1.22
2019-05-13T10:11:21.786Z,1.42
2019-05-13T10:14:13.866Z,1.47
2019-05-13T10:17:06.838Z,1.20
2019-05-13T10:19:58.833Z,1.50
2019-05-13T10:23:01.687Z,1.20
2019-05-13T10:25:48.819Z,1.20
2019-05-13T10:28:42.602Z,0.95
2019-05-13T10:31:35.793Z,1.37
2019-05-13T10:34:28.584Z,1.00
2019-05-13T10:37:22.226Z,1.50
2019-05-13T10:40:14.954Z,1.17
2019-05-13T10:43:27.153Z,1.02
2019-05-13T10:46:07.990Z,1.00
2019-05-13T10:49:01.896Z,1.52
2019-05-13T10:51:54.349Z,1.35
2019-05-13T10:54:47.145Z,1.27
2019-05-13T10:57:42.327Z,1.65
2019-05-13T11:00:42.383Z,1.50
2019-05-13T11:03:33.552Z,2.08
2019-05-13T11:06:21.967Z,1.42
2019-05-13T11:09:16.783Z,1.22
2019-05-13T11:12:17.520Z,1.32
2019-05-13T11:15:10.567Z,1.40
2019-05-13T11:18:06.186Z,0.98
2019-05-13T11:21:02.005Z,1.00
2019-05-13T11:23:52.809Z,1.35
2019-05-13T11:26:45.865Z,1.20
2019-05-13T11:29:39.207Z,1.40
2019-05-13T11:32:31.846Z,1.10
2019-05-13T11:35:24.777Z,1.17
2019-05-13T11:38:17.587Z,1.27
2019-05-13T11:41:11.881Z,1.10
2019-05-13T11:44:12.559Z,1.30
2019-05-13T11:46:57.514Z,1.27
2019-05-13T11:49:52.242Z,1.62
2019-05-13T11:52:43.656Z,1.50
2019-05-13T11:55:44.362Z,1.02
2019-05-13T11:58:37.415Z,0.80
2019-05-13T12:01:33.470Z,1.40
2019-05-13T12:04:23.937Z,1.02
2019-05-13T12:07:23.178Z,1.10
2019-05-13T12:10:37.033Z,1.27
2019-05-13T12:13:32.276Z,0.90
2019-05-13T12:16:23.403Z,1.10
2019-05-13T12:19:27.722Z,1.30
2019-05-13T12:22:27.943Z,1.25
2019-05-13T12:25:22.412Z,1.15
2019-05-13T12:28:11.408Z,1.17
2019-05-13T12:31:03.415Z,1.00
2019-05-13T12:33:56.076Z,1.00
2019-05-13T12:36:49.131Z,1.20
2019-05-13T12:39:43.862Z,0.93
2019-05-13T12:42:34.729Z,1.42
2019-05-13T12:45:27.787Z,1.60
2019-05-13T12:48:22.656Z,1.65
2019-05-13T12:51:13.285Z,1.15
2019-05-13T12:54:07.210Z,0.90
2019-05-13T12:57:11.794Z,0.90
2019-05-13T12:59:56.149Z,1.00
2019-05-13T13:02:51.812Z,1.20
2019-05-13T13:05:43.302Z,0.70
2019-05-13T13:08:43.780Z,1.07
2019-05-13T13:11:29.287Z,0.62
2019-05-13T13:14:21.676Z,0.62
2019-05-13T13:17:24.146Z,0.90
2019-05-13T13:20:15.812Z,0.80
2019-05-13T13:23:08.522Z,0.90
2019-05-13T13:25:58.035Z,0.62
2019-05-13T13:28:55.097Z,0.85
2019-05-13T13:31:43.849Z,0.60
2019-05-13T13:34:43.625Z,0.80
2019-05-13T13:37:34.972Z,0.65
2019-05-13T13:40:29.676Z,0.88
2019-05-13T13:43:24.697Z,1.00
2019-05-13T13:46:32.779Z,0.70
2019-05-13T13:49:12.688Z,0.80
2019-05-13T13:52:03.181Z,0.62
2019-05-13T13:55:04.398Z,1.07
2019-05-13T13:57:56.681Z,0.90
2019-05-13T14:01:00.576Z,0.55
2019-05-13T14:03:40.540Z,0.72
2019-05-13T14:09:37.641Z,0.80
2019-05-13T14:12:32.510Z,0.80
2019-05-13T14:15:34.338Z,0.60
2019-05-13T14:18:27.819Z,0.65
2019-05-13T14:21:17.391Z,0.70
2019-05-13T14:24:13.162Z,0.90
2019-05-13T14:27:03.048Z,0.70
2019-05-13T14:29:55.954Z,0.50
2019-05-13T14:32:56.681Z,0.80
2019-05-13T14:35:49.484Z,0.68
2019-05-13T14:38:42.538Z,0.80
2019-05-13T14:41:35.336Z,1.95
2019-05-13T14:44:28.650Z,0.60
2019-05-13T14:47:21.925Z,0.80
2019-05-13T14:50:14.508Z,0.80
2019-05-13T14:53:07.307Z,0.80
2019-05-13T14:56:02.979Z,0.50
2019-05-13T14:58:53.160Z,0.98
2019-05-13T15:01:48.267Z,0.70
2019-05-13T15:04:41.983Z,0.75
2019-05-13T15:07:34.126Z,0.70
2019-05-13T15:10:27.689Z,0.72
2019-05-13T15:13:20.745Z,0.70
2019-05-13T15:16:11.003Z,0.80
2019-05-13T15:19:14.284Z,0.68
2019-05-13T15:22:18.681Z,0.60
2019-05-13T15:25:11.659Z,0.70
2019-05-13T15:28:07.538Z,0.70
2019-05-13T15:31:00.849Z,0.80
2019-05-13T15:34:04.406Z,0.62
2019-05-13T15:36:57.459Z,0.50
2019-05-13T15:39:51.859Z,0.60
2019-05-13T15:42:44.584Z,0.90
2019-05-13T15:45:37.384Z,0.37
2019-05-13T15:48:33.000Z,0.65
2019-05-13T15:51:26.056Z,0.90
2019-05-13T15:54:21.925Z,0.90
2019-05-13T15:57:12.190Z,0.70
2019-05-13T16:00:05.229Z,0.60
2019-05-13T16:03:16.970Z,0.65
2019-05-13T16:06:20.264Z,0.80
2019-05-13T16:09:11.706Z,1.07
2019-05-13T16:12:03.306Z,0.68
2019-05-13T16:14:56.363Z,0.72
2019-05-13T16:17:49.162Z,1.05
2019-05-13T16:20:45.050Z,0.80
2019-05-13T16:23:35.528Z,0.80
2019-05-13T16:26:28.585Z,0.75
2019-05-13T16:29:22.461Z,0.90
2019-05-13T16:35:21.529Z,0.70
2019-05-13T16:38:12.584Z,0.78
2019-05-13T16:41:05.641Z,0.80
2019-05-13T16:44:00.743Z,0.60
2019-05-13T16:46:53.803Z,0.60
2019-05-13T16:49:46.861Z,1.02
2019-05-13T16:52:41.788Z,0.93
2019-05-13T16:55:32.846Z,1.10
2019-05-13T16:58:26.795Z,0.78
2019-05-13T17:01:21.906Z,1.00
2019-05-13T17:04:12.918Z,0.90
2019-05-13T17:07:27.467Z,0.70
2019-05-13T17:10:22.382Z,1.07
2019-05-13T17:13:15.117Z,0.93
2019-05-13T17:16:21.297Z,1.00
2019-05-13T17:19:15.563Z,0.80
2019-05-13T17:22:08.617Z,1.25
2019-05-13T17:25:02.507Z,1.30
2019-05-13T17:27:54.731Z,1.05
2019-05-13T17:30:47.543Z,1.10
2019-05-13T17:33:40.589Z,1.02
2019-05-13T17:36:33.640Z,0.70
2019-05-13T17:39:32.720Z,0.93
2019-05-13T17:42:25.639Z,1.30
2019-05-13T17:45:14.854Z,1.27
2019-05-13T17:48:07.915Z,0.90
2019-05-13T17:51:01.355Z,1.02
2019-05-13T17:53:52.009Z,1.25
2019-05-13T17:56:43.240Z,1.20
2019-05-13T17:59:36.311Z,1.40
2019-05-13T18:02:31.299Z,1.20
2019-05-13T18:05:22.639Z,1.30
2019-05-13T18:08:11.478Z,1.20
2019-05-13T18:11:12.363Z,1.10
2019-05-13T18:14:05.162Z,1.17
2019-05-13T18:16:58.472Z,1.17
2019-05-13T18:19:51.668Z,1.17
2019-05-13T18:22:46.632Z,1.55
2019-05-13T18:25:39.432Z,1.15
2019-05-13T18:28:32.493Z,1.10
2019-05-13T18:31:25.288Z,1.20
2019-05-13T18:34:18.346Z,1.60
2019-05-13T18:37:13.447Z,1.30
2019-05-13T18:40:02.542Z,1.10
2019-05-13T18:43:01.939Z,1.45
2019-05-13T18:46:02.147Z,1.40
2019-05-13T18:48:59.101Z,1.20
2019-05-13T18:51:49.742Z,1.30
2019-05-13T18:54:42.543Z,1.20
2019-05-13T18:57:37.128Z,1.42
2019-05-13T19:00:32.188Z,1.37
2019-05-13T19:03:32.308Z,1.00
2019-05-13T19:06:23.982Z,1.10
2019-05-13T19:09:14.458Z,1.00
2019-05-13T19:12:07.527Z,1.50
2019-05-13T19:15:02.417Z,1.45
2019-05-13T19:18:02.345Z,1.22
2019-05-13T19:24:13.367Z,1.20
2019-05-13T19:27:05.321Z,1.10
2019-05-13T19:30:11.904Z,1.00
2019-05-13T19:33:02.699Z,0.88
2019-05-13T19:35:55.500Z,0.85
2019-05-13T19:38:48.299Z,0.93
2019-05-13T19:41:42.356Z,1.17
2019-05-13T19:44:34.153Z,1.15
2019-05-13T19:47:26.952Z,1.25
2019-05-13T19:50:22.825Z,0.98
2019-05-13T19:53:15.625Z,1.05
2019-05-13T19:56:21.444Z,1.20
2019-05-13T19:59:23.752Z,1.10
2019-05-13T20:02:16.811Z,0.90
2019-05-13T20:05:12.429Z,1.35
2019-05-13T20:08:12.137Z,0.93
2019-05-13T20:11:05.192Z,0.78
2019-05-13T20:14:05.672Z,1.05
2019-05-13T20:16:58.474Z,1.10
2019-05-13T20:19:53.643Z,1.20
2019-05-13T20:22:42.245Z,0.80
2019-05-13T20:25:33.800Z,1.10
2019-05-13T20:28:26.861Z,0.93
2019-05-13T20:31:16.079Z,1.45
2019-05-13T20:34:11.606Z,0.95
2019-05-13T20:37:02.365Z,1.10
2019-05-13T20:40:13.674Z,1.30
2019-05-13T20:43:11.867Z,0.93
2019-05-13T20:46:03.115Z,1.02
2019-05-13T20:48:56.168Z,1.20
2019-05-13T20:51:51.519Z,1.27
2019-05-13T20:54:43.049Z,1.25
2019-05-13T20:57:37.130Z,1.30
2019-05-13T21:00:45.812Z,1.30
2019-05-13T21:03:41.629Z,1.35
2019-05-13T21:06:31.913Z,1.40
2019-05-13T21:09:32.657Z,1.30
2019-05-13T21:12:25.960Z,1.20
2019-05-13T21:15:31.677Z,1.42
2019-05-13T21:18:26.664Z,1.30
2019-05-13T21:21:14.568Z,1.85
2019-05-13T21:24:08.425Z,1.37
2019-05-13T21:27:03.916Z,1.10
2019-05-13T21:30:09.130Z,1.10
2019-05-13T21:33:02.276Z,1.20
2019-05-13T21:35:51.287Z,1.62
2019-05-13T21:38:44.715Z,1.25
2019-05-13T21:41:37.510Z,1.15
2019-05-13T21:44:32.636Z,1.27
2019-05-13T21:47:22.029Z,1.30
2019-05-13T21:50:33.077Z,1.35
2019-05-13T21:53:13.832Z,1.65
2019-05-13T21:56:12.192Z,1.25
2019-05-13T21:59:04.551Z,1.20
2019-05-13T22:01:57.615Z,1.40
2019-05-13T22:04:51.853Z,1.75
2019-05-13T22:07:43.471Z,1.00
2019-05-13T22:10:36.521Z,1.25
2019-05-13T22:13:31.638Z,1.12
2019-05-13T22:16:22.632Z,1.60
2019-05-13T22:19:12.416Z,1.15
2019-05-13T22:22:05.161Z,1.40
2019-05-13T22:24:58.218Z,1.37
2019-05-13T22:27:51.939Z,1.60
2019-05-13T22:30:44.332Z,1.00
2019-05-13T22:33:38.417Z,1.82
2019-05-13T22:36:31.903Z,1.37
2019-05-13T22:39:24.778Z,1.52
2019-05-13T22:42:17.578Z,1.15
2019-05-13T22:45:18.056Z,1.30
2019-05-13T22:48:14.626Z,1.42
2019-05-13T22:51:04.167Z,1.30
2019-05-13T22:53:57.224Z,1.47
2019-05-13T22:56:52.061Z,1.17
2019-05-13T22:59:43.094Z,1.47
2019-05-13T23:02:35.880Z,1.70
2019-05-13T23:05:28.935Z,1.50
2019-05-13T23:08:23.015Z,1.47
2019-05-13T23:11:15.820Z,1.75
2019-05-13T23:14:10.829Z,2.15
2019-05-13T23:17:02.257Z,1.22
2019-05-13T23:19:54.728Z,1.15
2019-05-13T23:22:47.784Z,1.87
2019-05-13T23:25:42.970Z,2.15
2019-05-13T23:28:37.479Z,1.52
2019-05-13T23:31:32.582Z,2.08
2019-05-13T23:34:25.639Z,1.55
2019-05-13T23:37:18.450Z,1.70
2019-05-13T23:40:11.866Z,1.60
2019-05-13T23:43:04.295Z,2.00
2019-05-13T23:45:57.358Z,1.60
2019-05-13T23:48:52.051Z,1.90
2019-05-13T23:51:43.466Z,1.60
2019-05-13T23:54:36.267Z,2.70
2019-05-13T23:57:31.282Z,1.47
